CheckWX is a tool to help pilots better visualize weather data.  It is not intended as a substitute for an official pre-flight weather briefing.

23:50:30 UTC

D25 METAR
Manitowish Waters Airport
Manitowish Waters, Wisconsin, USA
Current

16 mins ago

KD25 182335Z AUTO 14009KT 10SM CLR 10/04 A2974 RMK AO2 T00980041
Observed
Oct-18 @ 23:35 UTC
Wind
  • 140° at 9 KTS
Visibility
10 SM
Flight Rules
VFR
Cloud Levels
  • Clear skies
Temperature
10°C / 50°F
Dewpoint
C / 39°F
Humidity
67%
Altimeter
29.74" Hg
Pressure
1007.12 hPa
Previous

36 mins ago

KD25 182315Z AUTO 15009KT 10SM CLR 11/04 A2974 RMK AO2 T01050042
Observed
Oct-18 @ 23:15 UTC
Wind
  • 150° at 9 KTS
Visibility
10 SM
Flight Rules
VFR
Cloud Levels
  • Clear skies
Temperature
11°C / 52°F
Dewpoint
C / 39°F
Humidity
62%
Altimeter
29.74" Hg
Pressure
1007.12 hPa
Previous

56 mins ago

KD25 182255Z AUTO 15011G16KT 10SM CLR 11/04 A2974 RMK AO2 T01120043
Observed
Oct-18 @ 22:55 UTC
Wind
  • 150° at 11 KTS
  • Gusting to 16 KTS
Visibility
10 SM
Flight Rules
VFR
Cloud Levels
  • Clear skies
Temperature
11°C / 52°F
Dewpoint
C / 39°F
Humidity
62%
Altimeter
29.74" Hg
Pressure
1007.12 hPa